Time;durP1;ratioP1;P1;durP2;ratioP2;P2;SDS_P1;SDS_P2;PMS_P1;PMS_P2;Temp;Humidity;BMP_temperature;BMP_pressure;BME280_temperature;BME280_humidity;BME280_pressure;Samples;Min_cycle;Max_cycle;Signal;HPM_P1;HPM_P2
2021/09/17 00:00:37;;;;;;;5.23;2.77;;;;;;;14.16;100.00;100535.66;4998090;28;20226;-74
2021/09/17 00:03:04;;;;;;;2.60;2.40;;;;;;;14.15;100.00;100541.81;5001648;28;20208;-74
2021/09/17 00:05:31;;;;;;;3.20;2.40;;;;;;;14.16;100.00;100540.91;5008245;28;20201;-74
2021/09/17 00:07:57;;;;;;;3.07;2.43;;;;;;;14.15;100.00;100534.78;5003076;28;20220;-74
2021/09/17 00:10:24;;;;;;;2.33;2.13;;;;;;;14.16;100.00;100535.66;5002068;28;20283;-74
2021/09/17 00:12:52;;;;;;;3.00;2.50;;;;;;;14.15;100.00;100529.53;4999124;28;20205;-74
2021/09/17 00:15:19;;;;;;;3.63;2.40;;;;;;;14.18;100.00;100539.06;5001748;28;20213;-74
2021/09/17 00:17:46;;;;;;;3.33;2.40;;;;;;;14.16;100.00;100526.03;5003393;28;20219;-74
2021/09/17 00:20:15;;;;;;;3.70;2.30;;;;;;;14.16;100.00;100528.63;5004396;28;20957;-74
2021/09/17 00:22:42;;;;;;;3.07;2.47;;;;;;;14.17;100.00;100526.88;5003045;28;20229;-74
2021/09/17 00:25:10;;;;;;;3.77;2.40;;;;;;;14.17;100.00;100526.88;5002241;28;20217;-74
2021/09/17 00:27:37;;;;;;;2.40;2.20;;;;;;;14.17;100.00;100532.94;5006603;28;20233;-74
2021/09/17 00:30:06;;;;;;;3.80;2.60;;;;;;;14.16;100.00;100523.41;5001915;28;20217;-74
2021/09/17 00:32:33;;;;;;;3.13;2.37;;;;;;;14.17;100.00;100522.47;4998157;28;20201;-74
2021/09/17 00:35:00;;;;;;;2.57;2.20;;;;;;;14.18;100.00;100526.78;4998988;28;20589;-74
2021/09/17 00:37:28;;;;;;;6.77;2.60;;;;;;;14.19;100.00;100527.63;5001471;28;20618;-74
2021/09/17 00:39:55;;;;;;;3.17;2.30;;;;;;;14.19;100.00;100525.03;4985353;28;20300;-74
2021/09/17 00:42:22;;;;;;;2.87;2.47;;;;;;;14.21;100.00;100520.56;4994025;28;20596;-74
2021/09/17 00:44:49;;;;;;;4.00;2.07;;;;;;;14.18;100.00;100513.69;4997090;28;20251;-74
2021/09/17 00:47:18;;;;;;;2.30;2.10;;;;;;;14.18;100.00;100521.56;5004154;28;20232;-74
2021/09/17 00:49:45;;;;;;;3.07;2.20;;;;;;;14.18;100.00;100521.56;5001977;28;20235;-74
2021/09/17 00:52:12;;;;;;;5.03;2.30;;;;;;;14.18;100.00;100518.94;4998179;28;20317;-74
2021/09/17 00:54:38;;;;;;;3.30;2.27;;;;;;;14.16;100.00;100515.53;5003266;28;20574;-74
2021/09/17 00:57:05;;;;;;;2.80;2.47;;;;;;;14.15;100.00;100511.19;5002795;28;20229;-74
2021/09/17 00:59:33;;;;;;;3.33;2.40;;;;;;;14.17;100.00;100513.75;5004175;28;20231;-75
2021/09/17 01:01:59;;;;;;;3.70;2.50;;;;;;;14.18;100.00;100507.59;4996587;28;20312;-74
2021/09/17 01:04:27;;;;;;;4.97;2.17;;;;;;;14.18;100.00;100518.94;5002220;28;20206;-75
2021/09/17 01:06:54;;;;;;;3.40;2.17;;;;;;;14.18;100.00;100511.06;4999003;28;20234;-74
2021/09/17 01:09:21;;;;;;;3.33;2.13;;;;;;;14.17;100.00;100508.50;5003467;28;20197;-74
2021/09/17 01:11:48;;;;;;;3.90;2.67;;;;;;;14.16;100.00;100512.06;5001625;28;20212;-75
2021/09/17 01:14:15;;;;;;;3.63;2.47;;;;;;;14.14;100.00;100506.88;5003429;28;20204;-75
2021/09/17 01:16:41;;;;;;;5.70;2.43;;;;;;;14.15;100.00;100508.56;5002369;28;20235;-75
2021/09/17 01:19:08;;;;;;;2.57;2.37;;;;;;;14.12;100.00;100508.69;5003458;28;20210;-75
2021/09/17 01:21:36;;;;;;;3.40;2.30;;;;;;;14.13;100.00;100501.69;5003689;28;20626;-74
2021/09/17 01:24:02;;;;;;;3.37;2.53;;;;;;;14.13;100.00;100493.84;4998430;28;20297;-74
2021/09/17 01:26:28;;;;;;;3.03;2.43;;;;;;;14.14;100.00;100504.25;5000146;28;20699;-74
2021/09/17 01:28:55;;;;;;;3.20;2.67;;;;;;;14.12;100.00;100503.44;5001996;28;20770;-74
2021/09/17 01:31:22;;;;;;;2.80;2.50;;;;;;;14.13;100.00;100504.31;5002560;28;20241;-74
2021/09/17 01:33:48;;;;;;;3.53;2.60;;;;;;;14.11;100.00;100506.16;5003453;28;20208;-74
2021/09/17 01:36:14;;;;;;;3.20;2.47;;;;;;;14.11;100.00;100503.53;5005045;28;20238;-74
2021/09/17 01:38:43;;;;;;;4.67;2.40;;;;;;;14.10;100.00;100507.06;4999880;28;20210;-74
2021/09/17 01:41:09;;;;;;;4.37;2.73;;;;;;;14.11;100.00;100499.13;4991502;28;20216;-74
2021/09/17 01:43:36;;;;;;;3.80;2.90;;;;;;;14.10;100.00;100502.66;4999739;28;20626;-74
2021/09/17 01:46:03;;;;;;;4.03;2.67;;;;;;;14.10;100.00;100501.81;5000588;28;20231;-74
2021/09/17 01:48:30;;;;;;;2.80;2.60;;;;;;;14.09;100.00;100500.97;4997844;28;20307;-74
2021/09/17 01:50:57;;;;;;;3.10;2.80;;;;;;;14.09;100.00;100505.34;5002939;28;20271;-74
2021/09/17 01:53:24;;;;;;;4.83;2.83;;;;;;;14.08;100.00;100495.81;4999444;28;20696;-75
2021/09/17 01:55:51;;;;;;;4.93;2.87;;;;;;;14.07;100.00;100494.97;4999920;28;20247;-74
2021/09/17 01:58:18;;;;;;;3.03;2.73;;;;;;;14.06;100.00;100490.63;5001193;28;20217;-74
2021/09/17 02:00:44;;;;;;;4.93;2.93;;;;;;;14.07;100.00;100494.97;4993973;28;20215;-74
2021/09/17 02:03:10;;;;;;;4.57;2.60;;;;;;;14.09;100.00;100489.63;4998058;28;20232;-74
2021/09/17 02:05:37;;;;;;;4.63;3.10;;;;;;;14.08;100.00;100491.41;5000273;28;20226;-74
2021/09/17 02:08:04;;;;;;;4.50;3.20;;;;;;;14.09;100.00;100485.25;5003321;28;20211;-74
2021/09/17 02:10:30;;;;;;;4.63;3.40;;;;;;;14.09;100.00;100489.63;5000081;28;20244;-74
2021/09/17 02:12:58;;;;;;;4.53;3.50;;;;;;;14.12;100.00;100484.25;4992775;28;20193;-74
2021/09/17 02:15:24;;;;;;;4.20;2.97;;;;;;;14.12;100.00;100482.47;5002953;28;20216;-74
2021/09/17 02:17:51;;;;;;;5.30;3.20;;;;;;;14.13;100.00;100483.34;5000780;28;20252;-74
2021/09/17 02:20:17;;;;;;;3.07;2.83;;;;;;;14.13;100.00;100476.31;4998896;28;20316;-74
2021/09/17 02:22:44;;;;;;;5.17;2.87;;;;;;;14.13;100.00;100483.34;4995226;28;20568;-74
2021/09/17 02:25:11;;;;;;;4.37;3.10;;;;;;;14.14;100.00;100480.66;5000241;28;20663;-74
2021/09/17 02:27:37;;;;;;;5.07;3.17;;;;;;;14.15;100.00;100471.03;5001554;28;20218;-74
2021/09/17 02:30:07;;;;;;;4.20;3.10;;;;;;;14.15;100.00;100477.09;5001031;28;20699;-74
2021/09/17 02:32:34;;;;;;;4.27;2.53;;;;;;;14.18;100.00;100473.50;5002034;28;20196;-74
2021/09/17 02:35:00;;;;;;;4.53;2.23;;;;;;;14.17;100.00;100472.63;4998614;28;20680;-74
2021/09/17 02:37:26;;;;;;;4.37;2.60;;;;;;;14.15;100.00;100471.88;4995597;28;20234;-74
2021/09/17 02:39:53;;;;;;;3.13;2.63;;;;;;;14.15;100.00;100474.47;5000436;28;20228;-74
2021/09/17 02:42:19;;;;;;;3.40;2.40;;;;;;;14.14;100.00;100472.81;4998502;28;20236;-74
2021/09/17 02:44:45;;;;;;;3.90;2.40;;;;;;;14.15;100.00;100471.88;5000775;28;20211;-74
2021/09/17 02:47:13;;;;;;;3.33;2.57;;;;;;;14.16;100.00;100470.97;4999665;28;20239;-74
2021/09/17 02:49:39;;;;;;;2.90;2.60;;;;;;;14.15;100.00;100468.41;4998606;28;20224;-74
2021/09/17 02:52:06;;;;;;;3.37;2.27;;;;;;;14.15;100.00;100468.41;4997521;28;20215;-74
2021/09/17 02:54:33;;;;;;;5.67;2.60;;;;;;;14.14;100.00;100467.56;5003026;28;20217;-74
2021/09/17 02:56:59;;;;;;;4.13;2.60;;;;;;;14.14;100.00;100467.56;4996665;28;20236;-74
2021/09/17 02:59:26;;;;;;;4.07;2.63;;;;;;;14.16;100.00;100463.09;5002607;28;20218;-74
2021/09/17 03:01:52;;;;;;;3.10;2.50;;;;;;;14.17;100.00;100463.94;4996125;28;20228;-74
2021/09/17 03:04:20;;;;;;;4.37;2.80;;;;;;;14.18;100.00;100461.25;5000010;28;20207;-74
2021/09/17 03:06:46;;;;;;;3.70;2.47;;;;;;;14.19;100.00;100457.72;4998433;28;20224;-74
2021/09/17 03:09:12;;;;;;;5.57;2.40;;;;;;;14.18;100.00;100455.16;5000427;28;20212;-74
2021/09/17 03:11:39;;;;;;;3.60;2.47;;;;;;;14.20;100.00;100458.56;4998956;28;20433;-74
2021/09/17 03:14:05;;;;;;;3.87;2.57;;;;;;;14.19;100.00;100459.47;4990112;28;20766;-74
2021/09/17 03:16:32;;;;;;;4.90;2.77;;;;;;;14.19;100.00;100459.47;4999322;28;20604;-74
2021/09/17 03:18:59;;;;;;;3.77;2.30;;;;;;;14.19;100.00;100457.72;4992857;28;20350;-74
2021/09/17 03:21:26;;;;;;;4.03;2.60;;;;;;;14.17;100.00;100451.66;4999678;28;20269;-74
2021/09/17 03:23:53;;;;;;;4.00;2.33;;;;;;;14.18;100.00;100452.53;4998092;28;20219;-74
2021/09/17 03:26:19;;;;;;;3.17;2.40;;;;;;;14.19;100.00;100452.47;5001849;28;20238;-74
2021/09/17 03:28:45;;;;;;;2.80;2.33;;;;;;;14.16;100.00;100455.22;5006331;28;20209;-75
2021/09/17 03:31:12;;;;;;;3.20;2.40;;;;;;;14.17;100.00;100449.03;5002336;28;20207;-74
2021/09/17 03:33:38;;;;;;;4.73;2.30;;;;;;;14.16;100.00;100446.53;4999793;28;20210;-74
2021/09/17 03:36:05;;;;;;;5.20;2.77;;;;;;;14.17;100.00;100446.44;4999233;28;20718;-74
2021/09/17 03:38:33;;;;;;;4.53;2.47;;;;;;;14.18;100.00;100436.81;5001743;28;20231;-74
2021/09/17 03:40:59;;;;;;;5.93;2.80;;;;;;;14.17;100.00;100438.56;4997092;28;20210;-74
2021/09/17 03:43:26;;;;;;;3.53;2.70;;;;;;;14.16;100.00;100439.50;5002958;28;20603;-74
2021/09/17 03:45:52;;;;;;;6.20;2.50;;;;;;;14.17;100.00;100435.09;5001787;28;20226;-74
2021/09/17 03:48:19;;;;;;;2.70;2.20;;;;;;;14.16;100.00;100426.38;5006018;28;20316;-74
2021/09/17 03:50:45;;;;;;;4.03;2.80;;;;;;;14.17;100.00;100440.34;4998147;28;20197;-74
2021/09/17 03:53:11;;;;;;;5.07;2.20;;;;;;;14.14;100.00;100438.72;5001410;28;20205;-74
2021/09/17 03:55:40;;;;;;;4.87;2.47;;;;;;;14.14;100.00;100438.72;5002985;28;20232;-74
2021/09/17 03:58:06;;;;;;;3.97;2.60;;;;;;;14.15;100.00;100434.31;4997952;28;20206;-74
2021/09/17 04:00:34;;;;;;;4.13;2.47;;;;;;;14.17;100.00;100430.69;5001669;28;20205;-74
2021/09/17 04:03:01;;;;;;;3.50;2.40;;;;;;;14.17;100.00;100433.31;5002320;28;20242;-74
2021/09/17 04:05:27;;;;;;;3.30;2.60;;;;;;;14.15;100.00;100429.06;5000691;28;20206;-74
2021/09/17 04:07:54;;;;;;;4.30;2.30;;;;;;;14.14;100.00;100441.34;4996643;28;20684;-74
2021/09/17 04:10:20;;;;;;;3.70;2.50;;;;;;;14.14;100.00;100429.97;5000245;28;20213;-74
2021/09/17 04:12:48;;;;;;;5.17;2.53;;;;;;;14.16;100.00;100433.41;5004617;28;20209;-74
2021/09/17 04:15:15;;;;;;;2.50;2.30;;;;;;;14.16;100.00;100425.53;4997847;28;20658;-74
2021/09/17 04:17:42;;;;;;;4.20;2.43;;;;;;;14.17;100.00;100435.94;4999898;28;20296;-74
2021/09/17 04:20:10;;;;;;;4.00;2.50;;;;;;;14.17;100.00;100433.31;4998436;28;20201;-73
2021/09/17 04:22:36;;;;;;;5.10;2.10;;;;;;;14.18;100.00;100431.56;4998638;28;20224;-74
2021/09/17 04:25:03;;;;;;;3.37;2.67;;;;;;;14.17;100.00;100429.84;4999629;28;20632;-74
2021/09/17 04:27:29;;;;;;;4.13;2.37;;;;;;;14.16;100.00;100431.63;5002764;28;20258;-74
2021/09/17 04:29:57;;;;;;;4.73;2.63;;;;;;;14.15;100.00;100429.06;5001783;28;20200;-74
2021/09/17 04:32:24;;;;;;;4.13;2.90;;;;;;;14.15;100.00;100431.69;4981251;28;20213;-74
2021/09/17 04:34:50;;;;;;;7.30;2.90;;;;;;;14.12;100.00;100435.28;4981513;28;20212;-74
2021/09/17 04:37:17;;;;;;;3.90;2.70;;;;;;;14.15;100.00;100429.06;5001384;28;20240;-74
2021/09/17 04:39:44;;;;;;;3.90;2.57;;;;;;;14.14;100.00;100433.47;4996969;28;20304;-74
2021/09/17 04:42:10;;;;;;;3.33;2.63;;;;;;;14.16;100.00;100441.28;5000778;28;20592;-74
2021/09/17 04:44:36;;;;;;;4.83;2.73;;;;;;;14.15;100.00;100440.41;4992874;28;20238;-74
2021/09/17 04:47:05;;;;;;;7.20;2.67;;;;;;;14.15;100.00;100437.78;4998769;28;20607;-74
2021/09/17 04:49:31;;;;;;;4.87;2.80;;;;;;;14.15;100.00;100435.16;5002042;28;20623;-74
2021/09/17 04:51:57;;;;;;;6.00;2.50;;;;;;;14.16;100.00;100452.59;5000036;28;20291;-74
2021/09/17 04:54:24;;;;;;;5.13;2.80;;;;;;;14.15;100.00;100440.41;5001254;28;20661;-74
2021/09/17 04:56:50;;;;;;;3.60;2.63;;;;;;;14.16;100.00;100436.03;4999847;28;20309;-74
2021/09/17 04:59:16;;;;;;;2.30;2.10;;;;;;;14.15;100.00;100450.88;4999256;28;20211;-74
2021/09/17 05:01:43;;;;;;;5.13;2.37;;;;;;;14.13;100.00;100444.88;4981942;28;20748;-74
2021/09/17 05:04:10;;;;;;;3.47;2.60;;;;;;;14.13;100.00;100446.66;4990068;28;20610;-74
2021/09/17 05:06:37;;;;;;;5.20;2.23;;;;;;;14.14;100.00;100443.97;4994855;28;20234;-74
2021/09/17 05:09:03;;;;;;;4.00;2.23;;;;;;;14.13;100.00;100446.66;4998834;28;20230;-74
2021/09/17 05:11:30;;;;;;;3.17;2.30;;;;;;;14.12;100.00;100452.78;4998113;28;20208;-74
2021/09/17 05:13:56;;;;;;;2.67;2.20;;;;;;;14.11;100.00;100451.09;4996777;28;20203;-74
2021/09/17 05:16:22;;;;;;;3.33;2.10;;;;;;;14.11;100.00;100451.94;5002624;28;20229;-74
2021/09/17 05:18:49;;;;;;;6.77;2.20;;;;;;;14.12;100.00;100451.00;4999732;28;20510;-74
2021/09/17 05:21:17;;;;;;;3.93;2.33;;;;;;;14.14;100.00;100451.81;4999981;28;20209;-74
2021/09/17 05:23:43;;;;;;;2.97;1.90;;;;;;;14.14;100.00;100448.34;5003273;28;20216;-74
2021/09/17 05:26:09;;;;;;;2.67;1.90;;;;;;;14.14;100.00;100443.97;5001333;28;20236;-74
2021/09/17 05:28:36;;;;;;;3.50;2.07;;;;;;;14.15;100.00;100445.66;5001449;28;20238;-74
2021/09/17 05:31:02;;;;;;;2.00;1.80;;;;;;;14.14;100.00;100443.97;4998724;28;20212;-74
2021/09/17 05:33:29;;;;;;;2.00;1.70;;;;;;;14.17;100.00;100445.59;4999145;28;20206;-74
2021/09/17 05:35:55;;;;;;;3.97;1.83;;;;;;;14.20;100.00;100448.06;5001213;28;20252;-74
2021/09/17 05:38:23;;;;;;;4.47;1.87;;;;;;;14.20;100.00;100451.53;5001511;28;20544;-74
2021/09/17 05:40:49;;;;;;;3.60;1.73;;;;;;;14.23;100.00;100442.72;4997585;28;20731;-74
2021/09/17 05:43:16;;;;;;;2.20;1.70;;;;;;;14.25;100.00;100455.72;5001705;28;20306;-74
2021/09/17 05:45:42;;;;;;;3.40;2.00;;;;;;;14.27;100.00;100438.19;5000628;28;20808;-74
2021/09/17 05:48:09;;;;;;;3.70;2.37;;;;;;;14.28;100.00;100445.97;4994718;28;20231;-74
2021/09/17 05:50:35;;;;;;;3.97;1.70;;;;;;;14.30;100.00;100444.13;4999247;28;20204;-74
2021/09/17 05:53:02;;;;;;;3.83;1.97;;;;;;;14.34;100.00;100445.69;4997227;28;20946;-74
2021/09/17 05:55:30;;;;;;;2.70;1.83;;;;;;;14.39;100.00;100445.50;4999216;28;20219;-74
2021/09/17 05:57:56;;;;;;;2.60;2.20;;;;;;;14.42;100.00;100450.59;4999960;28;20212;-74
2021/09/17 06:00:24;;;;;;;3.30;1.73;;;;;;;14.43;100.00;100447.06;4997748;28;20210;-74
2021/09/17 06:02:50;;;;;;;4.07;2.00;;;;;;;14.48;100.00;100442.44;4994998;28;20225;-74
2021/09/17 06:05:16;;;;;;;3.33;1.77;;;;;;;14.48;100.00;100445.06;5002838;28;20202;-74
2021/09/17 06:07:44;;;;;;;3.40;2.20;;;;;;;14.54;100.00;100439.53;5002977;28;20610;-74
2021/09/17 06:10:12;;;;;;;4.23;1.87;;;;;;;14.51;100.00;100450.19;4999430;28;20255;-74
2021/09/17 06:12:40;;;;;;;2.40;1.50;;;;;;;14.58;100.00;100451.66;5000823;28;20212;-74
2021/09/17 06:15:08;;;;;;;2.40;1.50;;;;;;;14.65;100.00;100448.72;4999655;28;20204;-74
2021/09/17 06:17:35;;;;;;;2.63;1.50;;;;;;;14.74;100.00;100451.78;5002148;28;20983;-74
2021/09/17 06:20:01;;;;;;;2.33;1.53;;;;;;;14.74;100.00;100457.03;4992238;28;20200;-74
2021/09/17 06:22:27;;;;;;;2.67;1.50;;;;;;;14.76;100.00;100456.97;4997997;28;20861;-74
2021/09/17 06:24:54;;;;;;;3.07;1.40;;;;;;;14.71;100.00;100453.72;4994892;28;21061;-74
2021/09/17 06:27:20;;;;;;;1.30;1.17;;;;;;;14.77;100.00;100456.91;4999996;28;20233;-74
2021/09/17 06:29:48;;;;;;;1.97;1.40;;;;;;;14.75;100.00;100466.59;4992633;28;20577;-75
2021/09/17 06:32:14;;;;;;;2.73;1.40;;;;;;;14.75;100.00;100456.09;5000526;28;20563;-74
2021/09/17 06:34:40;;;;;;;3.43;1.43;;;;;;;14.80;100.00;100455.91;4996364;28;20196;-74
2021/09/17 06:37:09;;;;;;;1.60;1.50;;;;;;;14.84;100.00;100460.06;4999589;28;20231;-74
2021/09/17 06:39:35;;;;;;;2.40;1.33;;;;;;;14.95;100.00;100456.94;5000679;28;20291;-74
2021/09/17 06:42:02;;;;;;;2.60;1.50;;;;;;;14.99;100.00;100462.94;4997766;28;20207;-74
2021/09/17 06:44:29;;;;;;;1.80;1.47;;;;;;;15.06;100.00;100459.09;4993880;28;20224;-74
2021/09/17 06:46:57;;;;;;;2.37;1.37;;;;;;;15.02;100.00;100457.50;4998159;28;20255;-74
2021/09/17 06:49:23;;;;;;;1.80;1.30;;;;;;;15.00;100.00;100459.38;4999523;28;20208;-74
2021/09/17 06:51:50;;;;;;;2.67;1.40;;;;;;;15.05;100.00;100462.63;4991879;28;20209;-74
2021/09/17 06:54:16;;;;;;;3.60;1.40;;;;;;;15.12;100.00;100461.41;5001585;28;20674;-74
2021/09/17 06:56:42;;;;;;;1.77;1.50;;;;;;;15.08;98.65;100457.22;5008326;28;20314;-74
2021/09/17 06:59:09;;;;;;;1.93;1.20;;;;;;;15.13;98.74;100455.25;4997944;28;20576;-74
2021/09/17 07:01:35;;;;;;;2.50;1.17;;;;;;;15.13;98.56;100453.47;5002106;28;20201;-74
2021/09/17 07:04:03;;;;;;;1.63;1.27;;;;;;;15.12;98.31;100462.25;5002749;28;20224;-74
2021/09/17 07:06:32;;;;;;;4.30;1.40;;;;;;;15.15;99.86;100453.38;5000995;28;20283;-74
2021/09/17 07:08:59;;;;;;;1.63;1.30;;;;;;;15.06;98.04;100459.09;5003387;28;20258;-74
2021/09/17 07:11:27;;;;;;;3.80;1.53;;;;;;;15.11;99.31;100452.69;5004226;28;20216;-74
2021/09/17 07:13:53;;;;;;;1.33;1.20;;;;;;;15.19;99.92;100464.59;5002438;28;20200;-74
2021/09/17 07:16:20;;;;;;;2.73;1.33;;;;;;;15.15;98.40;100456.00;5004117;28;20258;-74
2021/09/17 07:18:46;;;;;;;2.20;1.53;;;;;;;15.11;98.75;100460.56;5001951;28;20212;-74
2021/09/17 07:21:14;;;;;;;1.93;1.40;;;;;;;15.11;99.51;100452.69;5004374;28;20204;-74
2021/09/17 07:23:40;;;;;;;1.23;1.07;;;;;;;15.12;99.30;100462.25;5003963;28;20227;-74
2021/09/17 07:26:07;;;;;;;3.83;1.60;;;;;;;15.03;99.90;100456.59;5003681;28;20234;-74
2021/09/17 07:28:33;;;;;;;3.30;1.30;;;;;;;15.05;100.00;100452.13;5000294;28;20833;-74
2021/09/17 07:31:00;;;;;;;1.83;1.40;;;;;;;15.02;100.00;100458.38;5003921;28;20218;-74
2021/09/17 07:33:27;;;;;;;1.90;1.30;;;;;;;14.92;100.00;100455.31;4993607;28;20205;-74
2021/09/17 07:35:54;;;;;;;2.30;1.30;;;;;;;14.92;100.00;100452.69;5003732;28;20243;-74
2021/09/17 07:38:22;;;;;;;5.30;1.80;;;;;;;14.93;100.00;100453.53;4999865;28;20208;-74
2021/09/17 07:40:48;;;;;;;2.03;1.40;;;;;;;14.82;100.00;100456.66;5001804;28;20315;-74
2021/09/17 07:43:14;;;;;;;2.23;1.30;;;;;;;14.91;100.00;100455.38;4978643;28;20225;-74
2021/09/17 07:45:41;;;;;;;1.60;1.23;;;;;;;14.85;100.00;100464.41;5001733;28;20235;-74
2021/09/17 07:48:07;;;;;;;1.83;1.27;;;;;;;14.78;100.00;100468.25;5001710;28;20220;-74
2021/09/17 07:50:33;;;;;;;1.30;1.20;;;;;;;14.73;100.00;100462.34;5003639;28;21049;-74
2021/09/17 07:53:00;;;;;;;2.37;1.40;;;;;;;14.64;100.00;100461.00;5004557;28;20327;-74
2021/09/17 07:55:33;;;;;;;1.53;1.30;;;;;;;14.62;100.00;100465.47;5009089;28;20200;-74
2021/09/17 07:58:00;;;;;;;2.57;1.30;;;;;;;14.54;100.00;100470.16;5000785;28;20332;-74
2021/09/17 08:00:26;;;;;;;1.80;1.43;;;;;;;14.49;100.00;100467.78;5001704;28;20693;-74
2021/09/17 08:02:52;;;;;;;1.57;1.47;;;;;;;14.35;100.00;100472.75;5002382;28;20208;-74
2021/09/17 08:05:19;;;;;;;2.50;1.90;;;;;;;14.31;100.00;100472.03;5001410;28;20375;-74
2021/09/17 08:07:45;;;;;;;2.57;1.77;;;;;;;14.25;100.00;100471.44;5002006;28;20207;-74
2021/09/17 08:10:12;;;;;;;2.90;1.80;;;;;;;14.28;100.00;100468.72;5002989;28;20218;-74
2021/09/17 08:12:40;;;;;;;2.00;1.80;;;;;;;14.19;100.00;100472.59;5002241;28;20253;-74
2021/09/17 08:15:07;;;;;;;1.77;1.50;;;;;;;14.14;100.00;100478.03;5004300;28;20738;-74
2021/09/17 08:17:33;;;;;;;2.83;1.30;;;;;;;13.95;100.00;100482.38;5002645;28;20237;-74
2021/09/17 08:20:00;;;;;;;0.83;0.83;;;;;;;13.60;100.00;100490.78;5003029;28;20239;-74
2021/09/17 08:22:26;;;;;;;3.97;2.70;;;;;;;13.46;100.00;100489.63;5003312;28;20208;-75
2021/09/17 08:24:52;;;;;;;1.33;1.23;;;;;;;13.27;100.00;100485.94;5000528;28;20229;-76
2021/09/17 08:27:19;;;;;;;1.53;1.10;;;;;;;13.04;100.00;100492.06;5003001;28;20234;-75
2021/09/17 08:29:46;;;;;;;1.93;0.90;;;;;;;12.86;100.00;100493.63;5001837;28;20263;-77
2021/09/17 08:32:13;;;;;;;1.37;1.00;;;;;;;12.84;100.00;100505.03;5004345;28;20206;-75
2021/09/17 08:34:42;;;;;;;1.50;1.10;;;;;;;12.81;100.00;100502.56;5001567;28;20291;-74
2021/09/17 08:37:09;;;;;;;1.63;1.10;;;;;;;12.79;100.00;100502.63;5003730;28;20229;-74
2021/09/17 08:39:38;;;;;;;1.83;1.20;;;;;;;12.81;100.00;100499.94;4982657;28;20219;-75
2021/09/17 08:42:07;;;;;;;2.30;1.40;;;;;;;12.80;100.00;100506.06;4998378;28;20682;-75
2021/09/17 08:44:34;;;;;;;1.27;1.17;;;;;;;12.87;100.00;100508.44;5003310;28;20224;-74
2021/09/17 08:47:02;;;;;;;1.50;1.10;;;;;;;12.86;100.00;100505.88;5001271;28;21030;-76
2021/09/17 08:49:30;;;;;;;0.90;0.90;;;;;;;12.75;100.00;100505.41;4999559;28;21019;-75
2021/09/17 08:51:58;;;;;;;1.20;1.10;;;;;;;12.75;100.00;100510.63;5001788;28;20212;-74
2021/09/17 08:54:24;;;;;;;1.30;0.90;;;;;;;12.81;100.00;100505.19;5001401;28;20204;-75
2021/09/17 08:56:50;;;;;;;1.20;0.97;;;;;;;12.84;100.00;100505.91;5001783;28;20232;-76
2021/09/17 08:59:17;;;;;;;0.90;0.90;;;;;;;12.87;100.00;100507.56;5004356;28;20204;-76
2021/09/17 09:01:43;;;;;;;1.57;1.20;;;;;;;12.88;100.00;100506.66;5000539;28;20698;-76
2021/09/17 09:04:13;;;;;;;1.57;1.10;;;;;;;12.86;100.00;100511.09;5001675;28;20921;-77
2021/09/17 09:06:41;;;;;;;1.30;1.20;;;;;;;12.91;100.00;100508.28;5003053;28;20232;-76
2021/09/17 09:09:15;;;;;;;3.30;1.33;;;;;;;12.93;100.00;100507.34;5001006;28;20568;-76
2021/09/17 09:11:41;;;;;;;1.40;1.30;;;;;;;13.03;100.00;100508.69;5001672;28;20671;-76
2021/09/17 09:14:10;;;;;;;1.30;1.20;;;;;;;13.04;100.00;100509.53;5000333;28;20201;-77
2021/09/17 09:16:39;;;;;;;3.93;1.40;;;;;;;13.15;100.00;100504.75;5005014;28;20310;-77
2021/09/17 09:19:27;;;;;;;1.37;1.23;;;;;;;13.14;100.00;100510.91;4992278;28;20700;-77
2021/09/17 09:22:09;;;;;;;3.27;1.30;;;;;;;13.18;100.00;100509.03;4999728;28;20200;-76
2021/09/17 09:24:39;;;;;;;1.70;1.10;;;;;;;13.22;100.00;100503.59;4998780;28;20224;-78
2021/09/17 09:27:09;;;;;;;1.50;1.10;;;;;;;13.35;100.00;100501.38;5004309;28;20232;-76
2021/09/17 09:29:37;;;;;;;1.87;1.27;;;;;;;13.43;100.00;100496.69;5000093;28;20212;-77
2021/09/17 09:32:03;;;;;;;2.37;1.20;;;;;;;13.48;100.00;100495.66;4999894;28;20585;-74
2021/09/17 09:34:53;;;;;;;1.90;1.40;;;;;;;13.67;100.00;100501.84;4998002;28;20765;-74
2021/09/17 09:37:20;;;;;;;2.10;1.30;;;;;;;13.79;100.00;100500.47;5000012;28;20327;-74
2021/09/17 09:39:58;;;;;;;1.40;1.30;;;;;;;13.97;100.00;100496.25;4999992;28;20198;-74
2021/09/17 09:42:36;;;;;;;1.67;1.37;;;;;;;14.08;100.00;100498.41;4997685;28;20706;-76
2021/09/17 09:45:08;;;;;;;2.10;1.27;;;;;;;14.30;100.00;100493.09;5001268;28;20313;-75
2021/09/17 09:47:37;;;;;;;3.53;1.20;;;;;;;14.36;100.00;100496.28;5002372;28;20221;-75
2021/09/17 09:50:07;;;;;;;1.47;1.00;;;;;;;14.37;100.00;100499.75;4999944;28;20214;-75
2021/09/17 09:52:34;;;;;;;1.73;0.93;;;;;;;14.22;100.00;100503.06;4998306;28;20692;-75
2021/09/17 09:55:00;;;;;;;1.40;0.73;;;;;;;14.29;100.00;100496.66;4995998;28;20210;-74
2021/09/17 09:57:28;;;;;;;0.90;0.80;;;;;;;14.17;100.00;100498.03;5002388;28;20233;-74
2021/09/17 09:59:59;;;;;;;1.00;0.87;;;;;;;14.22;100.00;100493.44;4995954;28;20316;-74
2021/09/17 10:02:28;;;;;;;3.03;1.00;;;;;;;14.30;100.00;100500.94;4998305;28;20681;-75
2021/09/17 10:04:57;;;;;;;3.30;1.07;;;;;;;14.30;100.00;100503.56;5001669;28;20293;-74
2021/09/17 10:07:27;;;;;;;0.83;0.83;;;;;;;14.28;100.00;100500.16;5001180;28;21226;-74
2021/09/17 10:09:54;;;;;;;2.40;0.90;;;;;;;14.32;100.00;100505.22;4999851;28;20226;-74
2021/09/17 10:12:20;;;;;;;1.27;0.87;;;;;;;14.25;100.00;100505.53;4995044;28;20210;-74
2021/09/17 10:14:48;;;;;;;3.90;0.77;;;;;;;14.24;100.00;100503.84;4998826;28;20283;-74
2021/09/17 10:17:20;;;;;;;2.30;0.63;;;;;;;14.28;100.00;100497.56;4996919;28;20723;-74
2021/09/17 10:19:47;;;;;;;0.97;0.70;;;;;;;14.34;100.00;100499.91;5002091;28;20213;-75
2021/09/17 10:22:28;;;;;;;2.17;0.80;;;;;;;14.49;100.00;100496.63;4997682;28;20202;-74
2021/09/17 10:25:08;;;;;;;2.00;0.70;;;;;;;14.59;100.00;100497.09;4998824;28;20294;-75
2021/09/17 10:27:35;;;;;;;1.90;0.70;;;;;;;14.55;100.00;100506.00;4994445;28;20601;-74
2021/09/17 10:30:05;;;;;;;1.03;0.83;;;;;;;14.57;100.00;100502.38;5001030;28;20212;-74
2021/09/17 10:32:34;;;;;;;1.10;0.80;;;;;;;14.52;100.00;100500.88;5001201;28;20224;-74
2021/09/17 10:35:04;;;;;;;1.23;1.03;;;;;;;14.54;100.00;100501.66;4999945;28;20200;-74
2021/09/17 10:37:53;;;;;;;2.10;0.73;;;;;;;14.62;100.00;100496.13;5003700;28;20234;-74
2021/09/17 10:40:33;;;;;;;0.93;0.70;;;;;;;14.74;100.00;100496.41;5002608;28;20220;-75
2021/09/17 10:43:16;;;;;;;0.80;0.80;;;;;;;14.89;100.00;100499.25;4999953;28;20250;-74
2021/09/17 10:45:43;;;;;;;2.17;1.00;;;;;;;15.03;100.00;100490.72;4999818;28;20244;-74
2021/09/17 10:48:10;;;;;;;1.00;0.97;;;;;;;15.17;100.00;100496.19;5004131;28;20571;-74
2021/09/17 10:50:43;;;;;;;1.10;1.00;;;;;;;15.35;100.00;100497.06;5002200;28;20209;-74
2021/09/17 10:53:13;;;;;;;1.57;0.87;;;;;;;15.48;100.00;100497.34;5003071;28;20201;-75
2021/09/17 10:56:03;;;;;;;1.20;0.80;;;;;;;15.52;100.00;100498.88;5000826;28;20232;-74
2021/09/17 10:58:30;;;;;;;1.37;0.90;;;;;;;15.60;100.00;100494.13;5003618;28;20216;-75
2021/09/17 11:00:59;;;;;;;0.97;0.80;;;;;;;15.59;98.31;100507.34;5001337;28;20299;-75
2021/09/17 11:03:58;;;;;;;2.07;1.00;;;;;;;15.60;97.84;100491.50;4994207;28;20204;-74
2021/09/17 11:06:27;;;;;;;3.17;1.07;;;;;;;15.74;99.01;100480.28;5004110;28;20872;-75
2021/09/17 11:08:57;;;;;;;1.83;1.00;;;;;;;15.95;99.01;100475.75;5002275;28;20209;-74
2021/09/17 11:11:24;;;;;;;1.50;1.17;;;;;;;16.09;97.39;100481.16;5007796;28;20208;-74
2021/09/17 11:13:52;;;;;;;0.97;0.80;;;;;;;16.03;91.71;100486.72;5008815;28;20212;-74
2021/09/17 11:16:19;;;;;;;1.33;0.97;;;;;;;16.13;93.88;100486.25;5003675;28;20611;-74
2021/09/17 11:18:51;;;;;;;2.20;1.00;;;;;;;16.18;92.54;100490.38;5002605;28;20259;-74